createdAt,value
2022-11-24T14:48:29.496Z,100400.03
2022-11-24T14:51:23.378Z,100397.56
2022-11-24T14:54:29.028Z,100401.97
2022-11-24T14:57:26.912Z,100414.81
2022-11-24T15:00:24.867Z,100413.25
2022-11-24T15:03:18.740Z,100424.25
2022-11-24T15:06:19.866Z,100425.16
2022-11-24T15:09:19.719Z,100428.66
2022-11-24T15:12:12.830Z,100435.41
2022-11-24T15:15:15.698Z,100432.63
2022-11-24T15:18:05.887Z,100430.16
2022-11-24T15:20:53.935Z,100426.72
2022-11-24T15:23:42.959Z,100426.84
2022-11-24T15:26:36.738Z,100428.66
2022-11-24T15:29:27.788Z,100423.47
2022-11-24T15:32:16.670Z,100429.22
2022-11-24T15:35:04.682Z,100431.25
2022-11-24T15:37:52.548Z,100433.31
2022-11-24T15:40:42.523Z,100430.16
2022-11-24T15:43:42.748Z,100434.28
2022-11-24T15:46:37.833Z,100444.53
2022-11-24T15:49:25.642Z,100441.97
2022-11-24T15:52:17.509Z,100446.25
2022-11-24T15:55:05.870Z,100446.53
2022-11-24T15:57:53.536Z,100449.09
2022-11-24T16:00:42.358Z,100458.34
2022-11-24T16:03:47.543Z,100464.53
2022-11-24T16:06:36.041Z,100459.03
2022-11-24T16:09:23.646Z,100464.19
2022-11-24T16:12:11.255Z,100459.19
2022-11-24T16:14:58.793Z,100470.31
2022-11-24T16:17:46.670Z,100464.28
2022-11-24T16:20:36.135Z,100464.19
2022-11-24T16:23:23.978Z,100467.72
2022-11-24T16:26:11.583Z,100464.47
2022-11-24T16:28:59.211Z,100462.94
2022-11-24T16:31:47.653Z,100473.88
2022-11-24T16:34:35.438Z,100479.72
2022-11-24T16:37:23.256Z,100482.22
2022-11-24T16:40:19.866Z,100469.50
2022-11-24T16:43:07.245Z,100480.56
2022-11-24T16:46:28.954Z,100480.47
2022-11-24T16:49:17.080Z,100486.72
2022-11-24T16:52:05.062Z,100494.63
2022-11-24T16:54:52.661Z,100494.13
2022-11-24T16:57:40.599Z,100496.38
2022-11-24T17:00:28.360Z,100505.00
2022-11-24T17:03:16.042Z,100494.97
2022-11-24T17:06:05.613Z,100500.91
2022-11-24T17:08:55.618Z,100501.00
2022-11-24T17:11:43.242Z,100504.38
2022-11-24T17:14:30.898Z,100506.69
2022-11-24T17:17:18.517Z,100503.31
2022-11-24T17:20:06.926Z,100500.63
2022-11-24T17:22:54.613Z,100501.34
2022-11-24T17:25:42.182Z,100507.44
2022-11-24T17:28:30.228Z,100509.00
2022-11-24T17:31:35.782Z,100507.91
2022-11-24T17:34:23.569Z,100505.44
2022-11-24T17:37:11.157Z,100511.38
2022-11-24T17:40:26.962Z,100512.31
2022-11-24T17:43:17.095Z,100508.06
2022-11-24T17:46:05.957Z,100504.69
2022-11-24T17:48:54.487Z,100520.97
2022-11-24T17:51:42.468Z,100511.75
2022-11-24T17:54:46.620Z,100515.19
2022-11-24T17:57:35.281Z,100510.03
2022-11-24T18:00:23.364Z,100520.84
2022-11-24T18:03:11.527Z,100512.25
2022-11-24T18:06:07.061Z,100519.53
2022-11-24T18:08:57.535Z,100525.63
2022-11-24T18:11:45.442Z,100529.94
2022-11-24T18:14:33.671Z,100534.94
2022-11-24T18:17:21.711Z,100534.19
2022-11-24T18:20:09.915Z,100525.88
2022-11-24T18:23:05.661Z,100539.41
2022-11-24T18:26:03.906Z,100533.63
2022-11-24T18:30:01.857Z,100548.13
2022-11-24T18:32:38.913Z,100540.66
2022-11-24T18:35:27.093Z,100544.16
2022-11-24T18:38:15.154Z,100546.75
2022-11-24T18:41:04.340Z,100542.63
2022-11-24T18:43:52.560Z,100537.53
2022-11-24T18:46:40.334Z,100546.97
2022-11-24T18:49:38.168Z,100546.97
2022-11-24T18:52:25.975Z,100544.22
2022-11-24T18:55:16.010Z,100545.00
2022-11-24T18:58:33.772Z,100546.66
2022-11-24T19:01:25.099Z,100546.75
2022-11-24T19:04:20.224Z,100545.38
2022-11-24T19:07:09.073Z,100550.31
2022-11-24T19:10:21.963Z,100556.94
2022-11-24T19:13:51.183Z,100559.53
2022-11-24T19:18:05.564Z,100566.41
2022-11-24T19:20:56.681Z,100564.16
2022-11-24T19:23:44.795Z,100560.72
2022-11-24T19:26:36.721Z,100563.22
2022-11-24T19:29:24.678Z,100559.94
2022-11-24T19:32:13.087Z,100561.56
2022-11-24T19:35:04.886Z,100558.31
2022-11-24T19:37:57.746Z,100560.72
2022-11-24T19:40:51.065Z,100568.25
2022-11-24T19:43:39.727Z,100563.16
2022-11-24T19:46:42.356Z,100561.50
2022-11-24T19:49:34.176Z,100564.81
2022-11-24T19:52:27.477Z,100568.25
2022-11-24T19:55:18.565Z,100565.81
2022-11-24T19:58:09.999Z,100564.31
2022-11-24T20:01:16.752Z,100562.78
2022-11-24T20:04:09.475Z,100567.84
2022-11-24T20:06:57.089Z,100573.81
2022-11-24T20:09:44.686Z,100567.97
2022-11-24T20:12:33.283Z,100571.41
2022-11-24T20:15:20.927Z,100573.88
2022-11-24T20:18:08.643Z,100569.72
2022-11-24T20:21:05.522Z,100568.94
2022-11-24T20:23:55.860Z,100574.94
2022-11-24T20:26:46.946Z,100578.31
2022-11-24T20:29:34.611Z,100575.88
2022-11-24T20:32:22.255Z,100576.78
2022-11-24T20:35:14.988Z,100579.19
2022-11-24T20:38:05.579Z,100587.81
2022-11-24T20:40:53.600Z,100581.09
2022-11-24T20:43:42.771Z,100586.81
2022-11-24T20:46:32.358Z,100594.44
2022-11-24T20:49:21.895Z,100592.66
2022-11-24T20:52:09.555Z,100591.72
2022-11-24T20:54:58.331Z,100594.19
2022-11-24T20:57:45.936Z,100595.97
2022-11-24T21:00:33.542Z,100599.34
2022-11-24T21:03:21.155Z,100599.22
2022-11-24T21:06:09.700Z,100600.00
2022-11-24T21:09:03.414Z,100605.78
2022-11-24T21:11:51.713Z,100604.06
2022-11-24T21:14:39.767Z,100617.41
2022-11-24T21:17:27.613Z,100620.78
2022-11-24T21:20:15.448Z,100610.91
2022-11-24T21:23:03.825Z,100627.19
2022-11-24T21:25:51.432Z,100628.13
2022-11-24T21:28:39.137Z,100629.72
2022-11-24T21:31:26.750Z,100633.03
2022-11-24T21:34:16.238Z,100628.63
2022-11-24T21:37:03.892Z,100632.72
2022-11-24T21:39:51.553Z,100632.63
2022-11-24T21:42:39.098Z,100637.66
2022-11-24T21:45:29.209Z,100638.47
2022-11-24T21:48:16.769Z,100638.50
2022-11-24T21:51:07.077Z,100641.81
2022-11-24T21:53:54.642Z,100641.13
2022-11-24T21:56:42.177Z,100636.25
2022-11-24T21:59:29.812Z,100634.63
2022-11-24T22:02:17.467Z,100646.50
2022-11-24T22:05:05.475Z,100645.72
2022-11-24T22:07:53.180Z,100646.81
2022-11-24T22:10:40.825Z,100649.41
2022-11-24T22:13:28.563Z,100646.09
2022-11-24T22:16:24.088Z,100649.41
2022-11-24T22:19:11.922Z,100649.28
2022-11-24T22:21:59.585Z,100647.50
2022-11-24T22:24:47.234Z,100645.72
2022-11-24T22:27:34.815Z,100650.81
2022-11-24T22:30:22.851Z,100651.66
2022-11-24T22:33:10.475Z,100653.19
2022-11-24T22:35:59.735Z,100653.06
2022-11-24T22:38:48.397Z,100656.38
2022-11-24T22:41:36.117Z,100659.75
2022-11-24T22:44:23.688Z,100654.66
2022-11-24T22:47:11.307Z,100659.69
2022-11-24T22:49:58.993Z,100663.91
2022-11-24T22:52:46.608Z,100670.63
2022-11-24T22:55:35.541Z,100672.47
2022-11-24T22:58:23.173Z,100670.97
2022-11-24T23:01:15.034Z,100666.97
2022-11-24T23:04:03.899Z,100667.34
2022-11-24T23:06:51.863Z,100663.34
2022-11-24T23:09:39.509Z,100670.41
2022-11-24T23:12:27.127Z,100671.47
2022-11-24T23:15:14.926Z,100669.88
2022-11-24T23:18:02.657Z,100675.75
2022-11-24T23:20:50.258Z,100672.31
2022-11-24T23:23:37.849Z,100676.38
2022-11-24T23:26:34.510Z,100677.09
2022-11-24T23:29:21.948Z,100678.94
2022-11-24T23:32:09.580Z,100685.00
2022-11-24T23:34:57.257Z,100685.19
2022-11-24T23:38:06.644Z,100687.00
2022-11-24T23:40:55.700Z,100687.06
2022-11-24T23:43:43.868Z,100688.66
2022-11-24T23:46:31.538Z,100693.81
2022-11-24T23:49:19.219Z,100692.97
2022-11-24T23:52:07.024Z,100698.88
2022-11-24T23:54:54.645Z,100698.75
2022-11-24T23:57:42.247Z,100697.00
